Main page
METAR-TAF:

METAR-TAF

Airports :

Hévíz–Balaton Airport

Hévíz, Hungary

latitude: 46-41-11N, longitude: 017-09-33E, elevation: 124 m

Current weather observation

The report was made 47 minutes ago, at 23:45 UTC
Wind 7 kt from the Northwest
Temperature 7°C
Humidity 81%
Pressure 1019 hPa
Visibility: 9000 m

METAR: LHSM 172345Z AUTO 31007KT 9000 NCD 07/04 Q1019

Time: 01:32 (00:32 UTC)

Forecast

The report was made 13 hours and 17 minutes ago, at 11:15 UTC
Forecast valid from 17 at 12 UTC to 17 at 21 UTC
Wind 10 kt from the Southwest
Visibility 10 km or more
no clouds below 1500 m and no cumulonimbus
Temporary
from 17 at 12 UTC to 17 at 16 UTC
Wind 15 kt from the Southwest with gusts up to 25 kt

TAF: LHSM 171115Z 1712/1721 23010KT CAVOK TEMPO 1712/1716 23015G25KT

Weather observations and forecasts of more than 4000 airports (METAR and TAF reports).

The available stations are represented by yellow and red dots on the map.

Hover mouse over dot to see the name of the station.

Then click to see weather observations and forecasts.

To change the map : click on the green buttons with a black cross to zoom in, on the green button with a dash to zoom out, or on the green arrows for adjacent maps.


METAR-TAF: